sensor_id;sensor_type;location;lat;lon;timestamp;P1;durP1;ratioP1;P2;durP2;ratioP2
3865;SDS011;1948;53.250;10.412;2023-08-06T00:00:52;8.70;;;7.87;;
3865;SDS011;1948;53.250;10.412;2023-08-06T00:03:19;9.43;;;7.63;;
3865;SDS011;1948;53.250;10.412;2023-08-06T00:05:51;8.90;;;6.57;;
3865;SDS011;1948;53.250;10.412;2023-08-06T00:08:18;9.77;;;6.90;;
3865;SDS011;1948;53.250;10.412;2023-08-06T00:10:48;7.37;;;6.77;;
3865;SDS011;1948;53.250;10.412;2023-08-06T00:13:15;7.23;;;6.50;;
3865;SDS011;1948;53.250;10.412;2023-08-06T00:15:45;7.07;;;6.47;;
3865;SDS011;1948;53.250;10.412;2023-08-06T00:18:12;6.07;;;5.67;;
3865;SDS011;1948;53.250;10.412;2023-08-06T00:20:41;6.13;;;5.70;;
3865;SDS011;1948;53.250;10.412;2023-08-06T00:23:08;8.50;;;6.17;;
3865;SDS011;1948;53.250;10.412;2023-08-06T00:25:36;10.10;;;6.13;;
3865;SDS011;1948;53.250;10.412;2023-08-06T00:28:05;10.03;;;6.47;;
3865;SDS011;1948;53.250;10.412;2023-08-06T00:30:32;7.50;;;6.77;;
3865;SDS011;1948;53.250;10.412;2023-08-06T00:33:01;7.63;;;6.47;;
3865;SDS011;1948;53.250;10.412;2023-08-06T00:35:29;7.20;;;6.50;;
3865;SDS011;1948;53.250;10.412;2023-08-06T00:38:01;7.83;;;7.13;;
3865;SDS011;1948;53.250;10.412;2023-08-06T00:40:32;7.80;;;7.07;;
3865;SDS011;1948;53.250;10.412;2023-08-06T00:42:59;7.27;;;6.67;;
3865;SDS011;1948;53.250;10.412;2023-08-06T00:45:26;6.73;;;6.10;;
3865;SDS011;1948;53.250;10.412;2023-08-06T00:47:58;6.90;;;6.40;;
3865;SDS011;1948;53.250;10.412;2023-08-06T00:50:30;14.83;;;6.50;;
3865;SDS011;1948;53.250;10.412;2023-08-06T00:52:57;10.47;;;5.83;;
3865;SDS011;1948;53.250;10.412;2023-08-06T00:55:27;6.03;;;5.53;;
3865;SDS011;1948;53.250;10.412;2023-08-06T00:57:55;6.07;;;5.40;;
3865;SDS011;1948;53.250;10.412;2023-08-06T01:00:24;6.13;;;5.20;;
3865;SDS011;1948;53.250;10.412;2023-08-06T01:02:55;5.37;;;5.00;;
3865;SDS011;1948;53.250;10.412;2023-08-06T01:05:22;6.17;;;5.67;;
3865;SDS011;1948;53.250;10.412;2023-08-06T01:11:31;5.93;;;5.53;;
3865;SDS011;1948;53.250;10.412;2023-08-06T01:14:19;8.00;;;5.30;;
3865;SDS011;1948;53.250;10.412;2023-08-06T01:16:54;5.87;;;5.37;;
3865;SDS011;1948;53.250;10.412;2023-08-06T01:19:22;11.33;;;5.33;;
3865;SDS011;1948;53.250;10.412;2023-08-06T01:21:53;6.30;;;5.43;;
3865;SDS011;1948;53.250;10.412;2023-08-06T01:24:20;5.20;;;5.00;;
3865;SDS011;1948;53.250;10.412;2023-08-06T01:26:55;5.20;;;4.77;;
3865;SDS011;1948;53.250;10.412;2023-08-06T01:29:42;5.87;;;5.00;;
3865;SDS011;1948;53.250;10.412;2023-08-06T01:32:15;8.53;;;5.77;;
3865;SDS011;1948;53.250;10.412;2023-08-06T01:34:43;8.50;;;6.07;;
3865;SDS011;1948;53.250;10.412;2023-08-06T01:37:12;5.80;;;5.30;;
3865;SDS011;1948;53.250;10.412;2023-08-06T01:39:40;6.07;;;5.47;;
3865;SDS011;1948;53.250;10.412;2023-08-06T01:42:09;7.20;;;6.03;;
3865;SDS011;1948;53.250;10.412;2023-08-06T01:44:36;6.20;;;5.80;;
3865;SDS011;1948;53.250;10.412;2023-08-06T01:47:03;6.27;;;5.87;;
3865;SDS011;1948;53.250;10.412;2023-08-06T01:49:33;5.80;;;5.53;;
3865;SDS011;1948;53.250;10.412;2023-08-06T01:52:00;7.67;;;6.40;;
3865;SDS011;1948;53.250;10.412;2023-08-06T01:54:27;7.10;;;5.73;;
3865;SDS011;1948;53.250;10.412;2023-08-06T01:56:54;6.23;;;5.73;;
3865;SDS011;1948;53.250;10.412;2023-08-06T01:59:21;5.67;;;5.33;;
3865;SDS011;1948;53.250;10.412;2023-08-06T02:01:48;6.97;;;6.47;;
3865;SDS011;1948;53.250;10.412;2023-08-06T02:04:15;9.63;;;6.40;;
3865;SDS011;1948;53.250;10.412;2023-08-06T02:06:44;7.47;;;6.63;;
3865;SDS011;1948;53.250;10.412;2023-08-06T02:09:14;5.80;;;5.57;;
3865;SDS011;1948;53.250;10.412;2023-08-06T02:11:41;8.13;;;5.93;;
3865;SDS011;1948;53.250;10.412;2023-08-06T02:14:12;6.67;;;6.13;;
3865;SDS011;1948;53.250;10.412;2023-08-06T02:16:39;7.20;;;6.07;;
3865;SDS011;1948;53.250;10.412;2023-08-06T02:19:06;6.63;;;5.70;;
3865;SDS011;1948;53.250;10.412;2023-08-06T02:21:33;6.73;;;6.07;;
3865;SDS011;1948;53.250;10.412;2023-08-06T02:24:00;5.93;;;5.43;;
3865;SDS011;1948;53.250;10.412;2023-08-06T02:26:27;6.13;;;5.60;;
3865;SDS011;1948;53.250;10.412;2023-08-06T02:28:54;7.57;;;6.00;;
3865;SDS011;1948;53.250;10.412;2023-08-06T02:31:21;6.17;;;5.73;;
3865;SDS011;1948;53.250;10.412;2023-08-06T02:33:48;6.03;;;5.63;;
3865;SDS011;1948;53.250;10.412;2023-08-06T02:36:15;5.80;;;5.30;;
3865;SDS011;1948;53.250;10.412;2023-08-06T02:38:42;6.33;;;5.90;;
3865;SDS011;1948;53.250;10.412;2023-08-06T02:41:11;10.10;;;6.20;;
3865;SDS011;1948;53.250;10.412;2023-08-06T02:43:38;6.13;;;5.67;;
3865;SDS011;1948;53.250;10.412;2023-08-06T02:46:05;6.57;;;5.67;;
3865;SDS011;1948;53.250;10.412;2023-08-06T02:48:32;5.60;;;5.20;;
3865;SDS011;1948;53.250;10.412;2023-08-06T02:51:01;6.20;;;5.80;;
3865;SDS011;1948;53.250;10.412;2023-08-06T02:53:28;7.20;;;5.73;;
3865;SDS011;1948;53.250;10.412;2023-08-06T02:55:55;6.80;;;5.67;;
3865;SDS011;1948;53.250;10.412;2023-08-06T02:58:22;7.03;;;5.50;;
3865;SDS011;1948;53.250;10.412;2023-08-06T03:00:59;5.43;;;5.03;;
3865;SDS011;1948;53.250;10.412;2023-08-06T03:03:33;6.00;;;5.47;;
3865;SDS011;1948;53.250;10.412;2023-08-06T03:06:01;6.00;;;5.50;;
3865;SDS011;1948;53.250;10.412;2023-08-06T03:08:30;9.10;;;6.50;;
3865;SDS011;1948;53.250;10.412;2023-08-06T03:10:58;7.47;;;5.30;;
3865;SDS011;1948;53.250;10.412;2023-08-06T03:13:25;6.17;;;5.77;;
3865;SDS011;1948;53.250;10.412;2023-08-06T03:15:58;6.40;;;5.87;;
3865;SDS011;1948;53.250;10.412;2023-08-06T03:18:26;6.30;;;5.90;;
3865;SDS011;1948;53.250;10.412;2023-08-06T03:20:53;6.30;;;4.80;;
3865;SDS011;1948;53.250;10.412;2023-08-06T03:23:20;8.60;;;5.83;;
3865;SDS011;1948;53.250;10.412;2023-08-06T03:25:47;6.00;;;5.37;;
3865;SDS011;1948;53.250;10.412;2023-08-06T03:28:14;8.70;;;5.13;;
3865;SDS011;1948;53.250;10.412;2023-08-06T03:30:41;8.40;;;6.43;;
3865;SDS011;1948;53.250;10.412;2023-08-06T03:33:11;9.70;;;5.60;;
3865;SDS011;1948;53.250;10.412;2023-08-06T03:35:41;6.00;;;5.37;;
3865;SDS011;1948;53.250;10.412;2023-08-06T03:38:10;9.43;;;6.10;;
3865;SDS011;1948;53.250;10.412;2023-08-06T03:40:37;6.77;;;5.60;;
3865;SDS011;1948;53.250;10.412;2023-08-06T03:43:03;5.83;;;5.43;;
3865;SDS011;1948;53.250;10.412;2023-08-06T03:45:30;6.17;;;5.50;;
3865;SDS011;1948;53.250;10.412;2023-08-06T03:47:59;5.83;;;5.40;;
3865;SDS011;1948;53.250;10.412;2023-08-06T03:50:26;6.10;;;5.63;;
3865;SDS011;1948;53.250;10.412;2023-08-06T03:52:57;10.23;;;5.90;;
3865;SDS011;1948;53.250;10.412;2023-08-06T03:55:24;7.10;;;5.77;;
3865;SDS011;1948;53.250;10.412;2023-08-06T03:57:51;6.37;;;5.97;;
3865;SDS011;1948;53.250;10.412;2023-08-06T04:00:18;5.33;;;5.00;;
3865;SDS011;1948;53.250;10.412;2023-08-06T04:02:49;6.13;;;5.67;;
3865;SDS011;1948;53.250;10.412;2023-08-06T04:05:22;7.47;;;5.87;;
3865;SDS011;1948;53.250;10.412;2023-08-06T04:07:49;16.00;;;5.37;;
3865;SDS011;1948;53.250;10.412;2023-08-06T04:10:16;5.93;;;4.90;;
3865;SDS011;1948;53.250;10.412;2023-08-06T04:12:45;10.90;;;5.30;;
3865;SDS011;1948;53.250;10.412;2023-08-06T04:15:12;6.70;;;4.97;;
3865;SDS011;1948;53.250;10.412;2023-08-06T04:17:39;6.73;;;5.10;;
3865;SDS011;1948;53.250;10.412;2023-08-06T04:20:06;6.50;;;5.50;;
3865;SDS011;1948;53.250;10.412;2023-08-06T04:22:36;10.60;;;5.60;;
3865;SDS011;1948;53.250;10.412;2023-08-06T04:25:03;8.00;;;5.50;;
3865;SDS011;1948;53.250;10.412;2023-08-06T04:27:30;5.63;;;5.13;;
3865;SDS011;1948;53.250;10.412;2023-08-06T04:29:58;9.07;;;5.30;;
3865;SDS011;1948;53.250;10.412;2023-08-06T04:32:25;22.83;;;7.00;;
3865;SDS011;1948;53.250;10.412;2023-08-06T04:34:52;9.70;;;5.03;;
3865;SDS011;1948;53.250;10.412;2023-08-06T04:37:21;8.30;;;5.40;;
3865;SDS011;1948;53.250;10.412;2023-08-06T04:39:48;10.80;;;5.90;;
3865;SDS011;1948;53.250;10.412;2023-08-06T04:42:17;6.23;;;5.20;;
3865;SDS011;1948;53.250;10.412;2023-08-06T04:44:49;6.30;;;5.73;;
3865;SDS011;1948;53.250;10.412;2023-08-06T04:47:18;13.27;;;5.50;;
3865;SDS011;1948;53.250;10.412;2023-08-06T04:49:48;14.50;;;6.23;;
3865;SDS011;1948;53.250;10.412;2023-08-06T04:52:18;6.03;;;5.53;;
3865;SDS011;1948;53.250;10.412;2023-08-06T04:54:47;11.30;;;5.10;;
3865;SDS011;1948;53.250;10.412;2023-08-06T04:57:14;6.90;;;5.70;;
3865;SDS011;1948;53.250;10.412;2023-08-06T04:59:41;5.47;;;5.00;;
3865;SDS011;1948;53.250;10.412;2023-08-06T05:02:10;7.27;;;5.50;;
3865;SDS011;1948;53.250;10.412;2023-08-06T05:04:39;7.90;;;4.87;;
3865;SDS011;1948;53.250;10.412;2023-08-06T05:07:10;18.93;;;6.33;;
3865;SDS011;1948;53.250;10.412;2023-08-06T05:09:39;8.50;;;6.17;;
3865;SDS011;1948;53.250;10.412;2023-08-06T05:12:06;6.80;;;6.23;;
3865;SDS011;1948;53.250;10.412;2023-08-06T05:14:36;8.60;;;6.40;;
3865;SDS011;1948;53.250;10.412;2023-08-06T05:17:03;8.00;;;7.40;;
3865;SDS011;1948;53.250;10.412;2023-08-06T05:19:30;7.87;;;7.10;;
3865;SDS011;1948;53.250;10.412;2023-08-06T05:21:57;7.90;;;7.20;;
3865;SDS011;1948;53.250;10.412;2023-08-06T05:24:24;7.90;;;6.73;;
3865;SDS011;1948;53.250;10.412;2023-08-06T05:26:53;15.57;;;6.90;;
3865;SDS011;1948;53.250;10.412;2023-08-06T05:29:23;8.17;;;7.37;;
3865;SDS011;1948;53.250;10.412;2023-08-06T05:31:49;10.17;;;7.90;;
3865;SDS011;1948;53.250;10.412;2023-08-06T05:34:17;11.57;;;8.13;;
3865;SDS011;1948;53.250;10.412;2023-08-06T05:36:46;13.33;;;8.00;;
3865;SDS011;1948;53.250;10.412;2023-08-06T05:39:13;7.77;;;7.03;;
3865;SDS011;1948;53.250;10.412;2023-08-06T05:41:42;11.20;;;8.20;;
3865;SDS011;1948;53.250;10.412;2023-08-06T05:44:09;13.07;;;7.50;;
3865;SDS011;1948;53.250;10.412;2023-08-06T05:46:36;9.20;;;8.00;;
3865;SDS011;1948;53.250;10.412;2023-08-06T05:49:05;9.13;;;7.10;;
3865;SDS011;1948;53.250;10.412;2023-08-06T05:51:32;7.97;;;7.27;;
3865;SDS011;1948;53.250;10.412;2023-08-06T05:53:59;8.10;;;5.97;;
3865;SDS011;1948;53.250;10.412;2023-08-06T05:56:28;12.97;;;7.10;;
3865;SDS011;1948;53.250;10.412;2023-08-06T05:58:58;16.00;;;7.20;;
3865;SDS011;1948;53.250;10.412;2023-08-06T06:01:25;7.77;;;7.00;;
3865;SDS011;1948;53.250;10.412;2023-08-06T06:03:52;13.23;;;7.13;;
3865;SDS011;1948;53.250;10.412;2023-08-06T06:06:19;9.70;;;6.87;;
3865;SDS011;1948;53.250;10.412;2023-08-06T06:08:46;15.23;;;6.30;;
3865;SDS011;1948;53.250;10.412;2023-08-06T06:11:15;9.50;;;6.57;;
3865;SDS011;1948;53.250;10.412;2023-08-06T06:13:42;7.30;;;5.87;;
3865;SDS011;1948;53.250;10.412;2023-08-06T06:16:09;10.83;;;6.00;;
3865;SDS011;1948;53.250;10.412;2023-08-06T06:18:38;8.97;;;6.70;;
3865;SDS011;1948;53.250;10.412;2023-08-06T06:21:05;12.03;;;7.03;;
3865;SDS011;1948;53.250;10.412;2023-08-06T06:23:35;14.67;;;7.87;;
3865;SDS011;1948;53.250;10.412;2023-08-06T06:26:02;10.67;;;6.30;;
3865;SDS011;1948;53.250;10.412;2023-08-06T06:28:29;7.60;;;6.90;;
3865;SDS011;1948;53.250;10.412;2023-08-06T06:31:00;14.50;;;7.13;;
3865;SDS011;1948;53.250;10.412;2023-08-06T06:33:30;11.73;;;6.90;;
3865;SDS011;1948;53.250;10.412;2023-08-06T06:35:57;13.90;;;7.20;;
3865;SDS011;1948;53.250;10.412;2023-08-06T06:38:23;8.53;;;6.20;;
3865;SDS011;1948;53.250;10.412;2023-08-06T06:40:54;7.93;;;6.20;;
3865;SDS011;1948;53.250;10.412;2023-08-06T06:43:25;12.50;;;6.47;;
3865;SDS011;1948;53.250;10.412;2023-08-06T06:45:53;7.40;;;6.20;;
3865;SDS011;1948;53.250;10.412;2023-08-06T06:48:24;10.03;;;6.27;;
3865;SDS011;1948;53.250;10.412;2023-08-06T06:50:55;7.47;;;6.47;;
3865;SDS011;1948;53.250;10.412;2023-08-06T06:53:23;7.83;;;6.40;;
3865;SDS011;1948;53.250;10.412;2023-08-06T06:55:54;8.20;;;6.43;;
3865;SDS011;1948;53.250;10.412;2023-08-06T06:58:28;11.43;;;5.80;;
3865;SDS011;1948;53.250;10.412;2023-08-06T07:00:58;12.23;;;6.10;;
3865;SDS011;1948;53.250;10.412;2023-08-06T07:03:25;17.57;;;7.10;;
3865;SDS011;1948;53.250;10.412;2023-08-06T07:05:56;6.23;;;5.63;;
3865;SDS011;1948;53.250;10.412;2023-08-06T07:08:27;17.13;;;6.80;;
3865;SDS011;1948;53.250;10.412;2023-08-06T07:11:03;6.30;;;5.70;;
3865;SDS011;1948;53.250;10.412;2023-08-06T07:13:34;7.67;;;6.40;;
3865;SDS011;1948;53.250;10.412;2023-08-06T07:16:01;6.70;;;6.07;;
3865;SDS011;1948;53.250;10.412;2023-08-06T07:18:33;15.40;;;6.40;;
3865;SDS011;1948;53.250;10.412;2023-08-06T07:21:00;6.40;;;5.97;;
3865;SDS011;1948;53.250;10.412;2023-08-06T07:23:30;6.80;;;6.40;;
3865;SDS011;1948;53.250;10.412;2023-08-06T07:25:57;8.97;;;6.83;;
3865;SDS011;1948;53.250;10.412;2023-08-06T07:28:28;12.00;;;7.60;;
3865;SDS011;1948;53.250;10.412;2023-08-06T07:30:55;13.43;;;6.70;;
3865;SDS011;1948;53.250;10.412;2023-08-06T07:33:25;9.47;;;6.73;;
3865;SDS011;1948;53.250;10.412;2023-08-06T07:35:56;9.90;;;6.33;;
3865;SDS011;1948;53.250;10.412;2023-08-06T07:38:23;10.40;;;6.37;;
3865;SDS011;1948;53.250;10.412;2023-08-06T07:40:54;8.00;;;7.20;;
3865;SDS011;1948;53.250;10.412;2023-08-06T07:43:21;10.13;;;6.80;;
3865;SDS011;1948;53.250;10.412;2023-08-06T07:45:48;10.97;;;7.97;;
3865;SDS011;1948;53.250;10.412;2023-08-06T07:48:16;8.53;;;7.20;;
3865;SDS011;1948;53.250;10.412;2023-08-06T07:50:43;11.40;;;7.73;;
3865;SDS011;1948;53.250;10.412;2023-08-06T07:53:16;16.97;;;7.80;;
3865;SDS011;1948;53.250;10.412;2023-08-06T07:55:47;9.77;;;6.97;;
3865;SDS011;1948;53.250;10.412;2023-08-06T07:58:18;9.33;;;7.43;;
3865;SDS011;1948;53.250;10.412;2023-08-06T08:00:46;21.30;;;8.30;;
3865;SDS011;1948;53.250;10.412;2023-08-06T08:03:15;10.70;;;6.87;;
3865;SDS011;1948;53.250;10.412;2023-08-06T08:05:43;15.33;;;7.93;;
3865;SDS011;1948;53.250;10.412;2023-08-06T08:08:11;8.57;;;7.67;;
3865;SDS011;1948;53.250;10.412;2023-08-06T08:10:38;9.13;;;7.30;;
3865;SDS011;1948;53.250;10.412;2023-08-06T08:13:08;19.10;;;8.60;;
3865;SDS011;1948;53.250;10.412;2023-08-06T08:15:38;11.50;;;7.93;;
3865;SDS011;1948;53.250;10.412;2023-08-06T08:18:11;10.13;;;8.10;;
3865;SDS011;1948;53.250;10.412;2023-08-06T08:20:40;12.23;;;8.30;;
3865;SDS011;1948;53.250;10.412;2023-08-06T08:23:07;16.80;;;8.13;;
3865;SDS011;1948;53.250;10.412;2023-08-06T08:25:40;17.33;;;7.87;;
3865;SDS011;1948;53.250;10.412;2023-08-06T08:28:09;13.93;;;8.67;;
3865;SDS011;1948;53.250;10.412;2023-08-06T08:30:36;9.43;;;8.23;;
3865;SDS011;1948;53.250;10.412;2023-08-06T08:33:03;14.10;;;8.20;;
3865;SDS011;1948;53.250;10.412;2023-08-06T08:35:31;12.83;;;7.70;;
3865;SDS011;1948;53.250;10.412;2023-08-06T08:38:04;16.20;;;8.20;;
3865;SDS011;1948;53.250;10.412;2023-08-06T08:40:37;15.50;;;8.83;;
3865;SDS011;1948;53.250;10.412;2023-08-06T08:43:16;13.10;;;8.17;;
3865;SDS011;1948;53.250;10.412;2023-08-06T08:45:47;23.30;;;7.63;;
3865;SDS011;1948;53.250;10.412;2023-08-06T08:48:18;9.17;;;8.27;;
3865;SDS011;1948;53.250;10.412;2023-08-06T08:50:50;13.17;;;9.63;;
3865;SDS011;1948;53.250;10.412;2023-08-06T08:53:30;9.30;;;8.00;;
3865;SDS011;1948;53.250;10.412;2023-08-06T08:56:22;13.60;;;8.80;;
3865;SDS011;1948;53.250;10.412;2023-08-06T08:58:50;12.57;;;8.47;;
3865;SDS011;1948;53.250;10.412;2023-08-06T09:01:20;10.77;;;8.63;;
3865;SDS011;1948;53.250;10.412;2023-08-06T09:03:51;11.13;;;8.40;;
3865;SDS011;1948;53.250;10.412;2023-08-06T09:06:21;12.13;;;7.77;;
3865;SDS011;1948;53.250;10.412;2023-08-06T09:08:56;12.67;;;7.90;;
3865;SDS011;1948;53.250;10.412;2023-08-06T09:11:44;12.27;;;8.53;;
3865;SDS011;1948;53.250;10.412;2023-08-06T09:14:21;8.10;;;7.47;;
3865;SDS011;1948;53.250;10.412;2023-08-06T09:16:51;11.70;;;8.83;;
3865;SDS011;1948;53.250;10.412;2023-08-06T09:19:22;9.47;;;8.57;;
3865;SDS011;1948;53.250;10.412;2023-08-06T09:21:51;9.70;;;8.70;;
3865;SDS011;1948;53.250;10.412;2023-08-06T09:24:18;13.20;;;8.07;;
3865;SDS011;1948;53.250;10.412;2023-08-06T09:26:45;8.70;;;7.90;;
3865;SDS011;1948;53.250;10.412;2023-08-06T09:29:12;12.03;;;8.83;;
3865;SDS011;1948;53.250;10.412;2023-08-06T09:31:44;14.57;;;8.40;;
3865;SDS011;1948;53.250;10.412;2023-08-06T09:34:16;12.83;;;8.20;;
3865;SDS011;1948;53.250;10.412;2023-08-06T09:36:48;10.17;;;9.17;;
3865;SDS011;1948;53.250;10.412;2023-08-06T09:39:35;23.70;;;8.80;;
3865;SDS011;1948;53.250;10.412;2023-08-06T09:42:02;9.10;;;8.40;;
3865;SDS011;1948;53.250;10.412;2023-08-06T09:44:31;9.57;;;7.37;;
3865;SDS011;1948;53.250;10.412;2023-08-06T09:47:00;14.00;;;9.13;;
3865;SDS011;1948;53.250;10.412;2023-08-06T09:52:01;14.77;;;8.60;;
3865;SDS011;1948;53.250;10.412;2023-08-06T09:54:29;19.10;;;10.47;;
3865;SDS011;1948;53.250;10.412;2023-08-06T09:56:56;13.93;;;8.70;;
3865;SDS011;1948;53.250;10.412;2023-08-06T09:59:23;16.37;;;9.70;;
3865;SDS011;1948;53.250;10.412;2023-08-06T10:01:51;9.07;;;8.23;;
3865;SDS011;1948;53.250;10.412;2023-08-06T10:04:20;12.30;;;9.50;;
3865;SDS011;1948;53.250;10.412;2023-08-06T10:06:52;9.63;;;7.90;;
3865;SDS011;1948;53.250;10.412;2023-08-06T10:09:20;12.00;;;8.80;;
3865;SDS011;1948;53.250;10.412;2023-08-06T10:11:52;12.80;;;8.63;;
3865;SDS011;1948;53.250;10.412;2023-08-06T10:14:23;12.83;;;8.03;;
3865;SDS011;1948;53.250;10.412;2023-08-06T10:16:57;11.17;;;8.40;;
3865;SDS011;1948;53.250;10.412;2023-08-06T10:19:25;9.00;;;8.30;;
3865;SDS011;1948;53.250;10.412;2023-08-06T10:22:15;10.70;;;8.40;;
3865;SDS011;1948;53.250;10.412;2023-08-06T10:24:48;10.03;;;8.70;;
3865;SDS011;1948;53.250;10.412;2023-08-06T10:27:31;9.27;;;8.33;;
3865;SDS011;1948;53.250;10.412;2023-08-06T10:33:00;21.50;;;9.67;;
3865;SDS011;1948;53.250;10.412;2023-08-06T10:38:07;8.70;;;7.90;;
3865;SDS011;1948;53.250;10.412;2023-08-06T10:40:36;11.87;;;8.77;;
3865;SDS011;1948;53.250;10.412;2023-08-06T10:43:08;8.80;;;7.83;;
3865;SDS011;1948;53.250;10.412;2023-08-06T10:45:56;20.53;;;7.60;;
3865;SDS011;1948;53.250;10.412;2023-08-06T10:48:35;9.53;;;7.30;;
3865;SDS011;1948;53.250;10.412;2023-08-06T10:51:11;8.53;;;7.13;;
3865;SDS011;1948;53.250;10.412;2023-08-06T10:53:41;12.33;;;8.17;;
3865;SDS011;1948;53.250;10.412;2023-08-06T10:56:14;8.87;;;8.07;;
3865;SDS011;1948;53.250;10.412;2023-08-06T10:58:49;7.80;;;6.80;;
3865;SDS011;1948;53.250;10.412;2023-08-06T11:01:22;6.40;;;6.00;;
3865;SDS011;1948;53.250;10.412;2023-08-06T11:03:50;6.87;;;6.27;;
3865;SDS011;1948;53.250;10.412;2023-08-06T11:06:20;6.53;;;5.97;;
3865;SDS011;1948;53.250;10.412;2023-08-06T11:08:52;6.00;;;5.70;;
3865;SDS011;1948;53.250;10.412;2023-08-06T11:11:21;9.50;;;6.97;;
3865;SDS011;1948;53.250;10.412;2023-08-06T11:13:50;19.00;;;12.93;;
3865;SDS011;1948;53.250;10.412;2023-08-06T11:16:21;12.43;;;8.67;;
3865;SDS011;1948;53.250;10.412;2023-08-06T11:18:52;5.53;;;5.00;;
3865;SDS011;1948;53.250;10.412;2023-08-06T11:21:21;6.33;;;5.73;;
3865;SDS011;1948;53.250;10.412;2023-08-06T11:23:50;5.67;;;5.27;;
3865;SDS011;1948;53.250;10.412;2023-08-06T11:26:19;5.17;;;4.87;;
3865;SDS011;1948;53.250;10.412;2023-08-06T11:28:46;5.70;;;5.40;;
3865;SDS011;1948;53.250;10.412;2023-08-06T11:31:23;5.73;;;4.70;;
3865;SDS011;1948;53.250;10.412;2023-08-06T11:33:50;4.67;;;4.50;;
3865;SDS011;1948;53.250;10.412;2023-08-06T11:36:31;7.03;;;4.37;;
3865;SDS011;1948;53.250;10.412;2023-08-06T11:39:03;7.07;;;4.70;;
3865;SDS011;1948;53.250;10.412;2023-08-06T11:41:33;4.73;;;4.43;;
3865;SDS011;1948;53.250;10.412;2023-08-06T11:44:04;5.33;;;5.00;;
3865;SDS011;1948;53.250;10.412;2023-08-06T11:46:52;4.73;;;4.53;;
3865;SDS011;1948;53.250;10.412;2023-08-06T11:49:38;4.80;;;4.50;;
3865;SDS011;1948;53.250;10.412;2023-08-06T11:52:17;3.80;;;3.70;;
3865;SDS011;1948;53.250;10.412;2023-08-06T11:57:44;4.00;;;3.90;;
3865;SDS011;1948;53.250;10.412;2023-08-06T12:00:14;4.93;;;4.03;;
3865;SDS011;1948;53.250;10.412;2023-08-06T12:02:44;4.40;;;4.30;;
3865;SDS011;1948;53.250;10.412;2023-08-06T12:05:13;4.33;;;4.03;;
3865;SDS011;1948;53.250;10.412;2023-08-06T12:07:48;4.10;;;3.90;;
3865;SDS011;1948;53.250;10.412;2023-08-06T12:10:22;3.03;;;3.03;;
3865;SDS011;1948;53.250;10.412;2023-08-06T12:12:51;5.03;;;4.93;;
3865;SDS011;1948;53.250;10.412;2023-08-06T12:15:19;4.00;;;3.93;;
3865;SDS011;1948;53.250;10.412;2023-08-06T12:17:50;4.47;;;4.17;;
3865;SDS011;1948;53.250;10.412;2023-08-06T12:20:21;4.80;;;4.60;;
3865;SDS011;1948;53.250;10.412;2023-08-06T12:22:49;4.77;;;4.57;;
3865;SDS011;1948;53.250;10.412;2023-08-06T12:25:18;4.43;;;4.23;;
3865;SDS011;1948;53.250;10.412;2023-08-06T12:27:49;4.20;;;4.10;;
3865;SDS011;1948;53.250;10.412;2023-08-06T12:30:18;4.30;;;4.20;;
3865;SDS011;1948;53.250;10.412;2023-08-06T12:32:45;4.20;;;4.00;;
3865;SDS011;1948;53.250;10.412;2023-08-06T12:35:15;3.73;;;3.63;;
3865;SDS011;1948;53.250;10.412;2023-08-06T12:37:42;4.90;;;4.67;;
3865;SDS011;1948;53.250;10.412;2023-08-06T12:40:13;5.73;;;5.20;;
3865;SDS011;1948;53.250;10.412;2023-08-06T12:43:02;5.60;;;5.20;;
3865;SDS011;1948;53.250;10.412;2023-08-06T12:45:29;6.43;;;5.93;;
3865;SDS011;1948;53.250;10.412;2023-08-06T12:47:56;6.00;;;5.80;;
3865;SDS011;1948;53.250;10.412;2023-08-06T12:50:23;6.27;;;5.87;;
3865;SDS011;1948;53.250;10.412;2023-08-06T12:52:50;8.23;;;7.53;;
3865;SDS011;1948;53.250;10.412;2023-08-06T12:55:17;6.80;;;6.33;;
3865;SDS011;1948;53.250;10.412;2023-08-06T12:57:45;5.90;;;5.40;;
3865;SDS011;1948;53.250;10.412;2023-08-06T13:00:24;6.87;;;6.30;;
3865;SDS011;1948;53.250;10.412;2023-08-06T13:02:55;5.80;;;5.50;;
3865;SDS011;1948;53.250;10.412;2023-08-06T13:05:24;5.67;;;5.27;;
3865;SDS011;1948;53.250;10.412;2023-08-06T13:07:51;6.27;;;5.87;;
3865;SDS011;1948;53.250;10.412;2023-08-06T13:10:20;5.50;;;5.20;;
3865;SDS011;1948;53.250;10.412;2023-08-06T13:12:50;6.20;;;5.90;;
3865;SDS011;1948;53.250;10.412;2023-08-06T13:15:17;9.80;;;5.43;;
3865;SDS011;1948;53.250;10.412;2023-08-06T13:17:47;5.73;;;5.43;;
3865;SDS011;1948;53.250;10.412;2023-08-06T13:20:18;6.80;;;6.17;;
3865;SDS011;1948;53.250;10.412;2023-08-06T13:22:48;7.20;;;6.80;;
3865;SDS011;1948;53.250;10.412;2023-08-06T13:25:19;7.37;;;6.80;;
3865;SDS011;1948;53.250;10.412;2023-08-06T13:27:49;6.70;;;5.97;;
3865;SDS011;1948;53.250;10.412;2023-08-06T13:30:16;9.43;;;6.43;;
3865;SDS011;1948;53.250;10.412;2023-08-06T13:32:46;6.67;;;6.27;;
3865;SDS011;1948;53.250;10.412;2023-08-06T13:35:14;7.03;;;6.40;;
3865;SDS011;1948;53.250;10.412;2023-08-06T13:37:41;7.20;;;6.67;;
3865;SDS011;1948;53.250;10.412;2023-08-06T13:40:10;5.60;;;5.20;;
3865;SDS011;1948;53.250;10.412;2023-08-06T13:42:39;6.33;;;5.27;;
3865;SDS011;1948;53.250;10.412;2023-08-06T13:45:08;6.50;;;5.90;;
3865;SDS011;1948;53.250;10.412;2023-08-06T13:47:36;6.13;;;5.47;;
3865;SDS011;1948;53.250;10.412;2023-08-06T13:50:03;7.07;;;6.53;;
3865;SDS011;1948;53.250;10.412;2023-08-06T13:52:31;7.97;;;5.60;;
3865;SDS011;1948;53.250;10.412;2023-08-06T13:55:07;6.70;;;6.10;;
3865;SDS011;1948;53.250;10.412;2023-08-06T13:57:37;7.00;;;6.40;;
3865;SDS011;1948;53.250;10.412;2023-08-06T14:00:06;12.13;;;7.10;;
3865;SDS011;1948;53.250;10.412;2023-08-06T14:02:36;8.37;;;7.57;;
3865;SDS011;1948;53.250;10.412;2023-08-06T14:05:04;7.83;;;7.20;;
3865;SDS011;1948;53.250;10.412;2023-08-06T14:07:32;9.53;;;6.87;;
3865;SDS011;1948;53.250;10.412;2023-08-06T14:09:59;7.70;;;7.00;;
3865;SDS011;1948;53.250;10.412;2023-08-06T14:12:26;7.93;;;7.13;;
3865;SDS011;1948;53.250;10.412;2023-08-06T14:14:55;8.50;;;7.70;;
3865;SDS011;1948;53.250;10.412;2023-08-06T14:17:24;10.00;;;7.37;;
3865;SDS011;1948;53.250;10.412;2023-08-06T14:19:51;7.70;;;7.20;;
3865;SDS011;1948;53.250;10.412;2023-08-06T14:22:18;9.40;;;7.23;;
3865;SDS011;1948;53.250;10.412;2023-08-06T14:24:47;17.40;;;7.27;;
3865;SDS011;1948;53.250;10.412;2023-08-06T14:27:17;7.30;;;6.70;;
3865;SDS011;1948;53.250;10.412;2023-08-06T14:29:44;9.53;;;6.60;;
3865;SDS011;1948;53.250;10.412;2023-08-06T14:32:14;8.63;;;7.27;;
3865;SDS011;1948;53.250;10.412;2023-08-06T14:34:44;8.03;;;6.60;;
3865;SDS011;1948;53.250;10.412;2023-08-06T14:37:11;11.77;;;6.17;;
3865;SDS011;1948;53.250;10.412;2023-08-06T14:39:38;6.07;;;5.47;;
3865;SDS011;1948;53.250;10.412;2023-08-06T14:42:05;6.63;;;5.30;;
3865;SDS011;1948;53.250;10.412;2023-08-06T14:44:35;12.77;;;5.60;;
3865;SDS011;1948;53.250;10.412;2023-08-06T14:47:05;7.73;;;5.30;;
3865;SDS011;1948;53.250;10.412;2023-08-06T14:49:34;6.83;;;6.13;;
3865;SDS011;1948;53.250;10.412;2023-08-06T14:52:02;5.78;;;5.32;;
3865;SDS011;1948;53.250;10.412;2023-08-06T14:54:32;9.00;;;5.80;;
3865;SDS011;1948;53.250;10.412;2023-08-06T14:56:59;5.73;;;5.40;;
3865;SDS011;1948;53.250;10.412;2023-08-06T14:59:28;8.93;;;4.80;;
3865;SDS011;1948;53.250;10.412;2023-08-06T15:02:00;10.70;;;5.53;;
3865;SDS011;1948;53.250;10.412;2023-08-06T15:04:27;12.70;;;7.33;;
3865;SDS011;1948;53.250;10.412;2023-08-06T15:06:54;18.30;;;7.73;;
3865;SDS011;1948;53.250;10.412;2023-08-06T15:09:21;6.00;;;4.70;;
3865;SDS011;1948;53.250;10.412;2023-08-06T15:11:48;7.43;;;4.40;;
3865;SDS011;1948;53.250;10.412;2023-08-06T15:14:16;5.70;;;3.77;;
3865;SDS011;1948;53.250;10.412;2023-08-06T15:16:43;6.90;;;3.80;;
3865;SDS011;1948;53.250;10.412;2023-08-06T15:19:17;5.77;;;4.00;;
3865;SDS011;1948;53.250;10.412;2023-08-06T15:21:46;5.50;;;3.13;;
3865;SDS011;1948;53.250;10.412;2023-08-06T15:24:18;3.87;;;3.60;;
3865;SDS011;1948;53.250;10.412;2023-08-06T15:26:45;10.00;;;3.37;;